sensor_id;sensor_type;location;lat;lon;timestamp;pressure;altitude;pressure_sealevel;temperature;humidity
43071;BME280;36278;47.952;21.714;2022-10-22T00:01:56;100594.44;;;11.08;71.83
43071;BME280;36278;47.952;21.714;2022-10-22T00:04:21;100591.88;;;11.06;71.73
43071;BME280;36278;47.952;21.714;2022-10-22T00:06:46;100585.97;;;11.03;71.41
43071;BME280;36278;47.952;21.714;2022-10-22T00:09:12;100580.03;;;10.99;71.38
43071;BME280;36278;47.952;21.714;2022-10-22T00:11:38;100592.44;;;10.99;71.17
43071;BME280;36278;47.952;21.714;2022-10-22T00:14:03;100588.31;;;10.94;71.33
43071;BME280;36278;47.952;21.714;2022-10-22T00:16:29;100584.94;;;10.92;70.90
43071;BME280;36278;47.952;21.714;2022-10-22T00:18:55;100591.81;;;10.95;70.84
43071;BME280;36278;47.952;21.714;2022-10-22T00:21:20;100584.72;;;10.95;70.73
43071;BME280;36278;47.952;21.714;2022-10-22T00:23:45;100578.44;;;10.97;71.20
43071;BME280;36278;47.952;21.714;2022-10-22T00:26:11;100574.50;;;11.02;71.12
43071;BME280;36278;47.952;21.714;2022-10-22T00:28:37;100574.41;;;11.04;70.82
43071;BME280;36278;47.952;21.714;2022-10-22T00:31:03;100574.28;;;11.05;70.40
43071;BME280;36278;47.952;21.714;2022-10-22T00:33:30;100566.31;;;11.05;70.47
43071;BME280;36278;47.952;21.714;2022-10-22T00:35:55;100563.22;;;11.11;70.14
43071;BME280;36278;47.952;21.714;2022-10-22T00:38:21;100542.34;;;11.07;70.25
43071;BME280;36278;47.952;21.714;2022-10-22T00:40:47;100536.97;;;11.08;70.17
43071;BME280;36278;47.952;21.714;2022-10-22T00:43:14;100537.53;;;11.01;70.42
43071;BME280;36278;47.952;21.714;2022-10-22T00:45:40;100537.88;;;11.07;70.20
43071;BME280;36278;47.952;21.714;2022-10-22T00:48:07;100529.00;;;11.08;70.30
43071;BME280;36278;47.952;21.714;2022-10-22T00:50:49;100519.25;;;11.09;70.25
43071;BME280;36278;47.952;21.714;2022-10-22T00:53:36;100509.09;;;11.03;70.46
43071;BME280;36278;47.952;21.714;2022-10-22T00:56:03;100511.63;;;11.04;70.45
43071;BME280;36278;47.952;21.714;2022-10-22T00:58:32;100518.00;;;11.02;70.38
43071;BME280;36278;47.952;21.714;2022-10-22T01:00:59;100495.84;;;11.03;70.82
43071;BME280;36278;47.952;21.714;2022-10-22T01:03:25;100500.16;;;11.04;70.06
43071;BME280;36278;47.952;21.714;2022-10-22T01:05:58;100497.28;;;11.07;70.11
43071;BME280;36278;47.952;21.714;2022-10-22T01:08:31;100495.94;;;11.01;70.39
43071;BME280;36278;47.952;21.714;2022-10-22T01:11:11;100496.91;;;11.00;70.19
43071;BME280;36278;47.952;21.714;2022-10-22T01:13:56;100494.03;;;11.03;70.04
43071;BME280;36278;47.952;21.714;2022-10-22T01:22:29;100488.44;;;10.95;70.25
43071;BME280;36278;47.952;21.714;2022-10-22T01:27:34;100486.03;;;10.92;70.19
43071;BME280;36278;47.952;21.714;2022-10-22T01:30:09;100486.13;;;10.90;70.17
43071;BME280;36278;47.952;21.714;2022-10-22T01:32:57;100472.00;;;10.79;70.57
43071;BME280;36278;47.952;21.714;2022-10-22T01:35:28;100487.22;;;10.88;70.39
43071;BME280;36278;47.952;21.714;2022-10-22T01:37:58;100481.31;;;10.84;70.64
43071;BME280;36278;47.952;21.714;2022-10-22T01:40:26;100485.75;;;10.84;70.88
43071;BME280;36278;47.952;21.714;2022-10-22T01:43:00;100484.53;;;10.77;71.12
43071;BME280;36278;47.952;21.714;2022-10-22T01:45:29;100481.34;;;10.72;71.27
43071;BME280;36278;47.952;21.714;2022-10-22T01:53:48;100457.88;;;10.67;71.36
43071;BME280;36278;47.952;21.714;2022-10-22T01:56:34;100463.59;;;10.61;71.72
43071;BME280;36278;47.952;21.714;2022-10-22T02:04:25;100458.47;;;10.47;72.40
43071;BME280;36278;47.952;21.714;2022-10-22T02:06:56;100475.72;;;10.52;72.56
43071;BME280;36278;47.952;21.714;2022-10-22T02:09:26;100475.94;;;10.49;72.36
43071;BME280;36278;47.952;21.714;2022-10-22T02:11:53;100470.75;;;10.48;72.81
43071;BME280;36278;47.952;21.714;2022-10-22T02:14:20;100480.38;;;10.49;72.86
43071;BME280;36278;47.952;21.714;2022-10-22T02:16:47;100470.13;;;10.44;72.49
43071;BME280;36278;47.952;21.714;2022-10-22T02:21:40;100471.75;;;10.34;72.66
43071;BME280;36278;47.952;21.714;2022-10-22T02:24:05;100478.00;;;10.33;73.59
43071;BME280;36278;47.952;21.714;2022-10-22T02:26:36;100486.78;;;10.33;74.56
43071;BME280;36278;47.952;21.714;2022-10-22T02:32:11;100477.03;;;10.34;74.17
43071;BME280;36278;47.952;21.714;2022-10-22T02:34:38;100488.38;;;10.36;73.72
43071;BME280;36278;47.952;21.714;2022-10-22T02:37:04;100492.06;;;10.33;74.41
43071;BME280;36278;47.952;21.714;2022-10-22T02:39:31;100489.78;;;10.29;74.47
43071;BME280;36278;47.952;21.714;2022-10-22T02:41:57;100492.44;;;10.29;74.36
43071;BME280;36278;47.952;21.714;2022-10-22T02:44:23;100483.75;;;10.27;74.77
43071;BME280;36278;47.952;21.714;2022-10-22T02:46:49;100474.31;;;10.23;74.56
43071;BME280;36278;47.952;21.714;2022-10-22T02:49:15;100475.25;;;10.22;74.74
43071;BME280;36278;47.952;21.714;2022-10-22T02:51:41;100472.59;;;10.22;74.37
43071;BME280;36278;47.952;21.714;2022-10-22T02:54:06;100471.03;;;10.19;74.62
43071;BME280;36278;47.952;21.714;2022-10-22T02:56:32;100461.94;;;10.23;74.51
43071;BME280;36278;47.952;21.714;2022-10-22T02:58:57;100465.94;;;10.16;74.48
43071;BME280;36278;47.952;21.714;2022-10-22T03:01:23;100470.94;;;10.08;74.88
43071;BME280;36278;47.952;21.714;2022-10-22T03:03:48;100465.63;;;10.08;75.32
43071;BME280;36278;47.952;21.714;2022-10-22T03:06:15;100465.75;;;10.06;75.43
43071;BME280;36278;47.952;21.714;2022-10-22T03:08:41;100461.31;;;10.07;75.32
43071;BME280;36278;47.952;21.714;2022-10-22T03:11:06;100453.19;;;9.97;75.63
43071;BME280;36278;47.952;21.714;2022-10-22T03:13:32;100465.69;;;9.95;76.08
43071;BME280;36278;47.952;21.714;2022-10-22T03:15:57;100464.19;;;9.91;76.16
43071;BME280;36278;47.952;21.714;2022-10-22T03:18:23;100463.34;;;9.91;76.40
43071;BME280;36278;47.952;21.714;2022-10-22T03:20:48;100463.56;;;9.88;76.63
43071;BME280;36278;47.952;21.714;2022-10-22T03:23:16;100470.88;;;9.84;76.69
43071;BME280;36278;47.952;21.714;2022-10-22T03:25:44;100483.91;;;9.87;77.35
43071;BME280;36278;47.952;21.714;2022-10-22T03:28:12;100485.47;;;9.90;77.05
43071;BME280;36278;47.952;21.714;2022-10-22T03:30:39;100490.34;;;9.96;76.48
43071;BME280;36278;47.952;21.714;2022-10-22T03:33:05;100485.03;;;9.96;76.37
43071;BME280;36278;47.952;21.714;2022-10-22T03:35:30;100481.31;;;9.98;76.11
43071;BME280;36278;47.952;21.714;2022-10-22T03:37:59;100478.69;;;9.98;76.08
43071;BME280;36278;47.952;21.714;2022-10-22T03:40:25;100488.44;;;9.98;76.37
43071;BME280;36278;47.952;21.714;2022-10-22T03:42:50;100486.63;;;9.98;76.30
43071;BME280;36278;47.952;21.714;2022-10-22T03:45:15;100477.09;;;9.96;76.09
43071;BME280;36278;47.952;21.714;2022-10-22T03:47:41;100479.94;;;10.05;76.03
43071;BME280;36278;47.952;21.714;2022-10-22T03:50:07;100469.03;;;10.10;75.56
43071;BME280;36278;47.952;21.714;2022-10-22T03:52:37;100474.34;;;10.10;75.70
43071;BME280;36278;47.952;21.714;2022-10-22T03:55:04;100475.63;;;10.04;75.59
43071;BME280;36278;47.952;21.714;2022-10-22T03:57:29;100469.66;;;10.01;76.24
43071;BME280;36278;47.952;21.714;2022-10-22T03:59:55;100465.34;;;10.00;75.89
43071;BME280;36278;47.952;21.714;2022-10-22T04:02:20;100472.44;;;9.99;75.57
43071;BME280;36278;47.952;21.714;2022-10-22T04:04:46;100460.03;;;10.00;75.97
43071;BME280;36278;47.952;21.714;2022-10-22T04:07:11;100452.34;;;9.97;76.24
43071;BME280;36278;47.952;21.714;2022-10-22T04:09:37;100441.56;;;9.87;76.34
43071;BME280;36278;47.952;21.714;2022-10-22T04:12:03;100442.41;;;9.88;76.31
43071;BME280;36278;47.952;21.714;2022-10-22T04:14:30;100426.84;;;9.83;76.34
43071;BME280;36278;47.952;21.714;2022-10-22T04:16:56;100427.56;;;9.85;76.30
43071;BME280;36278;47.952;21.714;2022-10-22T04:19:21;100435.50;;;9.85;76.12
43071;BME280;36278;47.952;21.714;2022-10-22T04:21:47;100439.13;;;9.84;76.40
43071;BME280;36278;47.952;21.714;2022-10-22T04:24:12;100432.38;;;9.80;76.75
43071;BME280;36278;47.952;21.714;2022-10-22T04:26:37;100441.03;;;9.82;76.29
43071;BME280;36278;47.952;21.714;2022-10-22T04:29:05;100429.91;;;9.77;76.34
43071;BME280;36278;47.952;21.714;2022-10-22T04:31:30;100429.28;;;9.73;76.46
43071;BME280;36278;47.952;21.714;2022-10-22T04:33:58;100428.34;;;9.74;76.91
43071;BME280;36278;47.952;21.714;2022-10-22T04:36:24;100435.44;;;9.74;76.58
43071;BME280;36278;47.952;21.714;2022-10-22T04:38:55;100431.94;;;9.73;76.62
43071;BME280;36278;47.952;21.714;2022-10-22T04:41:26;100441.25;;;9.79;76.45
43071;BME280;36278;47.952;21.714;2022-10-22T04:43:53;100451.84;;;9.79;76.65
43071;BME280;36278;47.952;21.714;2022-10-22T04:46:19;100451.94;;;9.77;76.62
43071;BME280;36278;47.952;21.714;2022-10-22T04:48:45;100461.34;;;9.81;76.77
43071;BME280;36278;47.952;21.714;2022-10-22T04:51:16;100446.75;;;9.76;76.56
43071;BME280;36278;47.952;21.714;2022-10-22T04:53:43;100447.69;;;9.75;77.41
43071;BME280;36278;47.952;21.714;2022-10-22T04:58:44;100447.50;;;9.78;76.68
43071;BME280;36278;47.952;21.714;2022-10-22T05:03:35;100431.63;;;9.78;75.94
43071;BME280;36278;47.952;21.714;2022-10-22T05:06:00;100445.06;;;9.75;76.31
43071;BME280;36278;47.952;21.714;2022-10-22T05:08:26;100452.38;;;9.71;76.20
43071;BME280;36278;47.952;21.714;2022-10-22T05:10:51;100453.53;;;9.67;76.84
43071;BME280;36278;47.952;21.714;2022-10-22T05:13:17;100447.81;;;9.61;77.12
43071;BME280;36278;47.952;21.714;2022-10-22T05:15:42;100443.47;;;9.60;77.66
43071;BME280;36278;47.952;21.714;2022-10-22T05:18:07;100445.94;;;9.63;77.81
43071;BME280;36278;47.952;21.714;2022-10-22T05:20:33;100439.88;;;9.61;77.25
43071;BME280;36278;47.952;21.714;2022-10-22T05:22:58;100445.16;;;9.61;77.08
43071;BME280;36278;47.952;21.714;2022-10-22T05:25:24;100429.41;;;9.59;78.02
43071;BME280;36278;47.952;21.714;2022-10-22T05:27:49;100440.09;;;9.58;77.19
43071;BME280;36278;47.952;21.714;2022-10-22T05:30:15;100440.09;;;9.58;77.63
43071;BME280;36278;47.952;21.714;2022-10-22T05:32:40;100429.75;;;9.54;78.43
43071;BME280;36278;47.952;21.714;2022-10-22T05:35:06;100439.38;;;9.55;77.68
43071;BME280;36278;47.952;21.714;2022-10-22T05:37:31;100441.34;;;9.52;78.11
43071;BME280;36278;47.952;21.714;2022-10-22T05:39:57;100439.16;;;9.46;77.80
43071;BME280;36278;47.952;21.714;2022-10-22T05:42:22;100435.44;;;9.48;77.69
43071;BME280;36278;47.952;21.714;2022-10-22T05:44:47;100450.25;;;9.51;77.74
43071;BME280;36278;47.952;21.714;2022-10-22T05:47:13;100450.13;;;9.52;77.44
43071;BME280;36278;47.952;21.714;2022-10-22T05:49:38;100452.78;;;9.52;77.48
43071;BME280;36278;47.952;21.714;2022-10-22T05:52:04;100461.38;;;9.56;77.40
43071;BME280;36278;47.952;21.714;2022-10-22T05:54:29;100466.00;;;9.52;77.87
43071;BME280;36278;47.952;21.714;2022-10-22T05:56:54;100476.91;;;9.61;77.37
43071;BME280;36278;47.952;21.714;2022-10-22T05:59:20;100487.81;;;9.69;77.94
43071;BME280;36278;47.952;21.714;2022-10-22T06:01:45;100500.41;;;9.78;76.83
43071;BME280;36278;47.952;21.714;2022-10-22T06:04:12;100487.28;;;9.89;77.01
43071;BME280;36278;47.952;21.714;2022-10-22T06:09:16;100486.81;;;10.21;75.50
43071;BME280;36278;47.952;21.714;2022-10-22T06:11:43;100481.59;;;10.32;73.92
43071;BME280;36278;47.952;21.714;2022-10-22T06:14:09;100485.50;;;10.39;73.89
43071;BME280;36278;47.952;21.714;2022-10-22T06:16:35;100486.75;;;10.46;73.45
43071;BME280;36278;47.952;21.714;2022-10-22T06:19:00;100477.00;;;10.47;73.11
43071;BME280;36278;47.952;21.714;2022-10-22T06:21:26;100480.47;;;10.60;72.21
43071;BME280;36278;47.952;21.714;2022-10-22T06:23:55;100486.38;;;10.63;71.89
43071;BME280;36278;47.952;21.714;2022-10-22T06:26:21;100491.50;;;10.78;71.79
43071;BME280;36278;47.952;21.714;2022-10-22T06:28:46;100489.97;;;10.86;71.05
43071;BME280;36278;47.952;21.714;2022-10-22T06:31:12;100489.91;;;10.99;69.99
43071;BME280;36278;47.952;21.714;2022-10-22T06:33:39;100487.75;;;11.04;70.25
43071;BME280;36278;47.952;21.714;2022-10-22T06:36:17;100493.91;;;11.05;69.60
43071;BME280;36278;47.952;21.714;2022-10-22T06:38:43;100502.22;;;11.00;70.74
43071;BME280;36278;47.952;21.714;2022-10-22T06:41:15;100506.31;;;11.04;70.43
43071;BME280;36278;47.952;21.714;2022-10-22T06:43:42;100509.69;;;11.06;70.71
43071;BME280;36278;47.952;21.714;2022-10-22T06:46:17;100503.41;;;11.07;70.93
43071;BME280;36278;47.952;21.714;2022-10-22T06:48:50;100509.47;;;11.09;70.89
43071;BME280;36278;47.952;21.714;2022-10-22T06:51:17;100508.91;;;11.17;70.99
43071;BME280;36278;47.952;21.714;2022-10-22T06:53:42;100517.72;;;11.29;70.32
43071;BME280;36278;47.952;21.714;2022-10-22T06:56:13;100523.81;;;11.42;70.34
43071;BME280;36278;47.952;21.714;2022-10-22T06:58:39;100515.84;;;11.42;70.48
43071;BME280;36278;47.952;21.714;2022-10-22T07:01:12;100524.34;;;11.58;70.04
43071;BME280;36278;47.952;21.714;2022-10-22T07:03:39;100523.88;;;11.75;69.40
43071;BME280;36278;47.952;21.714;2022-10-22T07:06:07;100515.78;;;11.77;69.38
43071;BME280;36278;47.952;21.714;2022-10-22T07:08:34;100519.09;;;12.03;68.80
43071;BME280;36278;47.952;21.714;2022-10-22T07:11:08;100514.16;;;12.32;67.91
43071;BME280;36278;47.952;21.714;2022-10-22T07:13:34;100505.06;;;12.57;67.31
43071;BME280;36278;47.952;21.714;2022-10-22T07:16:00;100503.63;;;12.85;65.90
43071;BME280;36278;47.952;21.714;2022-10-22T07:18:25;100502.50;;;12.99;65.03
43071;BME280;36278;47.952;21.714;2022-10-22T07:20:51;100494.59;;;13.08;64.84
43071;BME280;36278;47.952;21.714;2022-10-22T07:23:16;100493.94;;;13.27;64.45
43071;BME280;36278;47.952;21.714;2022-10-22T07:25:42;100495.22;;;13.33;64.08
43071;BME280;36278;47.952;21.714;2022-10-22T07:28:08;100501.88;;;13.38;63.78
43071;BME280;36278;47.952;21.714;2022-10-22T07:30:34;100502.19;;;13.45;63.60
43071;BME280;36278;47.952;21.714;2022-10-22T07:33:00;100505.56;;;13.47;63.82
43071;BME280;36278;47.952;21.714;2022-10-22T07:35:25;100495.00;;;13.36;63.67
43071;BME280;36278;47.952;21.714;2022-10-22T07:37:51;100492.72;;;13.31;63.00
43071;BME280;36278;47.952;21.714;2022-10-22T07:40:16;100494.25;;;13.34;64.04
43071;BME280;36278;47.952;21.714;2022-10-22T07:42:41;100500.03;;;13.39;63.83
43071;BME280;36278;47.952;21.714;2022-10-22T07:45:07;100505.06;;;13.53;63.41
43071;BME280;36278;47.952;21.714;2022-10-22T07:47:33;100508.78;;;13.51;63.96
43071;BME280;36278;47.952;21.714;2022-10-22T07:49:58;100521.72;;;13.55;64.39
43071;BME280;36278;47.952;21.714;2022-10-22T07:52:24;100519.19;;;13.54;63.79
43071;BME280;36278;47.952;21.714;2022-10-22T07:54:49;100513.22;;;13.61;63.57
43071;BME280;36278;47.952;21.714;2022-10-22T07:57:15;100526.00;;;13.14;64.58
43071;BME280;36278;47.952;21.714;2022-10-22T07:59:40;100533.00;;;13.27;65.64
43071;BME280;36278;47.952;21.714;2022-10-22T08:02:06;100523.09;;;13.29;64.15
43071;BME280;36278;47.952;21.714;2022-10-22T08:04:31;100516.59;;;13.10;65.14
43071;BME280;36278;47.952;21.714;2022-10-22T08:06:57;100524.97;;;13.06;65.14
43071;BME280;36278;47.952;21.714;2022-10-22T08:09:22;100529.13;;;13.31;64.83
43071;BME280;36278;47.952;21.714;2022-10-22T08:11:48;100528.84;;;13.34;64.47
43071;BME280;36278;47.952;21.714;2022-10-22T08:14:13;100531.25;;;13.58;64.76
43071;BME280;36278;47.952;21.714;2022-10-22T08:16:39;100532.06;;;13.69;63.51
43071;BME280;36278;47.952;21.714;2022-10-22T08:19:04;100525.00;;;13.89;63.22
43071;BME280;36278;47.952;21.714;2022-10-22T08:21:30;100522.00;;;14.03;62.49
43071;BME280;36278;47.952;21.714;2022-10-22T08:23:55;100530.88;;;14.14;61.83
43071;BME280;36278;47.952;21.714;2022-10-22T08:26:21;100531.22;;;14.30;62.86
43071;BME280;36278;47.952;21.714;2022-10-22T08:28:46;100528.00;;;14.36;61.79
43071;BME280;36278;47.952;21.714;2022-10-22T08:31:12;100525.44;;;14.55;62.37
43071;BME280;36278;47.952;21.714;2022-10-22T08:33:37;100528.69;;;14.59;60.90
43071;BME280;36278;47.952;21.714;2022-10-22T08:36:03;100531.53;;;14.06;61.81
43071;BME280;36278;47.952;21.714;2022-10-22T08:38:29;100533.66;;;14.12;62.30
43071;BME280;36278;47.952;21.714;2022-10-22T08:41:06;100533.50;;;14.44;61.87
43071;BME280;36278;47.952;21.714;2022-10-22T08:49:22;100539.78;;;14.74;61.08
43071;BME280;36278;47.952;21.714;2022-10-22T08:51:49;100535.34;;;15.03;60.51
43071;BME280;36278;47.952;21.714;2022-10-22T09:07:46;100510.84;;;15.76;58.67
43071;BME280;36278;47.952;21.714;2022-10-22T09:10:16;100525.75;;;15.78;59.17
43071;BME280;36278;47.952;21.714;2022-10-22T09:12:42;100524.13;;;16.05;58.85
43071;BME280;36278;47.952;21.714;2022-10-22T09:15:16;100525.19;;;16.21;57.92
43071;BME280;36278;47.952;21.714;2022-10-22T09:17:55;100517.50;;;16.36;57.54
43071;BME280;36278;47.952;21.714;2022-10-22T09:23:15;100533.94;;;16.78;56.86
43071;BME280;36278;47.952;21.714;2022-10-22T09:25:46;100523.75;;;16.82;56.33
43071;BME280;36278;47.952;21.714;2022-10-22T09:28:13;100518.94;;;16.58;57.04
43071;BME280;36278;47.952;21.714;2022-10-22T09:30:39;100517.63;;;16.72;57.46
43071;BME280;36278;47.952;21.714;2022-10-22T09:33:13;100525.22;;;16.67;57.90
43071;BME280;36278;47.952;21.714;2022-10-22T09:35:51;100525.50;;;16.91;57.21
43071;BME280;36278;47.952;21.714;2022-10-22T09:38:20;100527.91;;;16.94;57.26
43071;BME280;36278;47.952;21.714;2022-10-22T09:40:52;100534.78;;;16.97;57.70
43071;BME280;36278;47.952;21.714;2022-10-22T09:43:19;100541.31;;;16.85;58.00
43071;BME280;36278;47.952;21.714;2022-10-22T09:45:45;100540.81;;;16.81;57.85
43071;BME280;36278;47.952;21.714;2022-10-22T09:48:21;100517.78;;;16.70;58.90
43071;BME280;36278;47.952;21.714;2022-10-22T09:51:09;100515.97;;;16.89;57.89
43071;BME280;36278;47.952;21.714;2022-10-22T09:53:37;100519.25;;;17.00;57.94
43071;BME280;36278;47.952;21.714;2022-10-22T09:56:14;100510.78;;;16.87;58.06
43071;BME280;36278;47.952;21.714;2022-10-22T09:58:43;100499.81;;;16.80;58.55
43071;BME280;36278;47.952;21.714;2022-10-22T10:01:19;100512.38;;;16.80;58.68
43071;BME280;36278;47.952;21.714;2022-10-22T10:03:47;100517.72;;;16.80;58.79
43071;BME280;36278;47.952;21.714;2022-10-22T10:06:17;100515.88;;;16.80;58.82
43071;BME280;36278;47.952;21.714;2022-10-22T10:08:43;100512.22;;;16.81;59.07
43071;BME280;36278;47.952;21.714;2022-10-22T10:13:56;100514.44;;;17.04;58.55
43071;BME280;36278;47.952;21.714;2022-10-22T10:16:37;100509.78;;;17.06;58.88
43071;BME280;36278;47.952;21.714;2022-10-22T10:27:35;100489.97;;;16.99;59.13
43071;BME280;36278;47.952;21.714;2022-10-22T10:30:12;100491.94;;;17.15;59.19
43071;BME280;36278;47.952;21.714;2022-10-22T10:35:28;100496.13;;;17.17;59.04
43071;BME280;36278;47.952;21.714;2022-10-22T10:40:39;100504.16;;;17.17;59.55
43071;BME280;36278;47.952;21.714;2022-10-22T10:43:32;100501.50;;;17.17;59.30
43071;BME280;36278;47.952;21.714;2022-10-22T10:51:36;100499.38;;;17.03;60.25
43071;BME280;36278;47.952;21.714;2022-10-22T10:54:24;100488.28;;;16.98;60.58
43071;BME280;36278;47.952;21.714;2022-10-22T10:56:59;100487.81;;;16.85;61.33
43071;BME280;36278;47.952;21.714;2022-10-22T11:12:56;100463.09;;;17.08;61.34
43071;BME280;36278;47.952;21.714;2022-10-22T11:15:28;100453.34;;;16.99;61.50
43071;BME280;36278;47.952;21.714;2022-10-22T11:18:07;100448.06;;;16.90;61.65
43071;BME280;36278;47.952;21.714;2022-10-22T11:24:45;100441.78;;;16.63;63.34
43071;BME280;36278;47.952;21.714;2022-10-22T11:27:06;100440.28;;;16.51;64.44
43071;BME280;36278;47.952;21.714;2022-10-22T11:29:50;100432.44;;;16.49;64.50
43071;BME280;36278;47.952;21.714;2022-10-22T11:32:37;100429.50;;;16.43;64.75
43071;BME280;36278;47.952;21.714;2022-10-22T11:35:05;100426.31;;;16.39;64.87
43071;BME280;36278;47.952;21.714;2022-10-22T11:37:34;100430.28;;;16.35;65.22
43071;BME280;36278;47.952;21.714;2022-10-22T11:40:32;100428.31;;;16.37;65.70
43071;BME280;36278;47.952;21.714;2022-10-22T11:43:05;100432.69;;;16.29;66.12
43071;BME280;36278;47.952;21.714;2022-10-22T11:45:36;100428.41;;;16.18;66.44
43071;BME280;36278;47.952;21.714;2022-10-22T11:48:18;100428.41;;;16.18;66.68
43071;BME280;36278;47.952;21.714;2022-10-22T11:55:55;100420.28;;;16.10;67.58
43071;BME280;36278;47.952;21.714;2022-10-22T12:00:54;100413.56;;;16.06;67.70
43071;BME280;36278;47.952;21.714;2022-10-22T12:08:41;100413.84;;;16.03;68.42
43071;BME280;36278;47.952;21.714;2022-10-22T12:11:12;100402.34;;;16.02;68.51
43071;BME280;36278;47.952;21.714;2022-10-22T12:16:46;100397.66;;;16.04;68.94
43071;BME280;36278;47.952;21.714;2022-10-22T12:19:16;100395.00;;;16.04;69.31
43071;BME280;36278;47.952;21.714;2022-10-22T12:21:46;100396.00;;;16.03;69.44
43071;BME280;36278;47.952;21.714;2022-10-22T12:24:14;100405.84;;;16.03;69.65
43071;BME280;36278;47.952;21.714;2022-10-22T12:26:41;100405.69;;;16.04;69.74
43071;BME280;36278;47.952;21.714;2022-10-22T12:29:14;100396.97;;;16.02;69.96
43071;BME280;36278;47.952;21.714;2022-10-22T12:31:41;100394.47;;;16.01;69.84
43071;BME280;36278;47.952;21.714;2022-10-22T12:34:22;100392.31;;;16.04;69.71
43071;BME280;36278;47.952;21.714;2022-10-22T12:36:50;100386.28;;;16.02;69.97
43071;BME280;36278;47.952;21.714;2022-10-22T12:39:18;100383.34;;;16.05;69.66
43071;BME280;36278;47.952;21.714;2022-10-22T12:41:44;100380.97;;;16.02;70.02
43071;BME280;36278;47.952;21.714;2022-10-22T12:44:12;100387.03;;;15.94;69.64
43071;BME280;36278;47.952;21.714;2022-10-22T12:46:39;100393.38;;;15.93;70.69
43071;BME280;36278;47.952;21.714;2022-10-22T12:49:10;100404.91;;;15.94;70.61
43071;BME280;36278;47.952;21.714;2022-10-22T12:51:38;100390.03;;;15.91;70.20
43071;BME280;36278;47.952;21.714;2022-10-22T12:54:12;100390.44;;;15.87;70.94
43071;BME280;36278;47.952;21.714;2022-10-22T12:56:39;100396.69;;;15.78;71.29
43071;BME280;36278;47.952;21.714;2022-10-22T12:59:18;100405.53;;;15.78;72.13
43071;BME280;36278;47.952;21.714;2022-10-22T13:01:44;100395.47;;;15.62;72.56
43071;BME280;36278;47.952;21.714;2022-10-22T13:09:38;100396.91;;;15.57;72.88
43071;BME280;36278;47.952;21.714;2022-10-22T13:12:05;100392.41;;;15.57;73.34
43071;BME280;36278;47.952;21.714;2022-10-22T13:14:34;100400.97;;;15.51;73.32
43071;BME280;36278;47.952;21.714;2022-10-22T13:17:16;100393.66;;;15.53;73.32
43071;BME280;36278;47.952;21.714;2022-10-22T13:19:49;100387.63;;;15.61;72.84
43071;BME280;36278;47.952;21.714;2022-10-22T13:22:36;100381.41;;;15.60;72.63
43071;BME280;36278;47.952;21.714;2022-10-22T13:28:16;100389.41;;;15.70;71.77
43071;BME280;36278;47.952;21.714;2022-10-22T13:30:52;100392.22;;;15.68;72.50
43071;BME280;36278;47.952;21.714;2022-10-22T13:33:38;100384.09;;;15.60;73.01
43071;BME280;36278;47.952;21.714;2022-10-22T13:36:05;100384.09;;;15.60;72.67
43071;BME280;36278;47.952;21.714;2022-10-22T13:38:31;100381.13;;;15.63;72.31
43071;BME280;36278;47.952;21.714;2022-10-22T13:40:57;100374.41;;;15.59;72.57
43071;BME280;36278;47.952;21.714;2022-10-22T13:43:23;100377.78;;;15.52;73.08
43071;BME280;36278;47.952;21.714;2022-10-22T13:45:53;100382.34;;;15.41;73.33
43071;BME280;36278;47.952;21.714;2022-10-22T13:48:20;100378.00;;;15.31;73.94
43071;BME280;36278;47.952;21.714;2022-10-22T13:50:48;100378.88;;;15.22;74.45
43071;BME280;36278;47.952;21.714;2022-10-22T13:53:19;100371.16;;;15.19;74.45
43071;BME280;36278;47.952;21.714;2022-10-22T13:55:45;100377.38;;;15.09;75.04
43071;BME280;36278;47.952;21.714;2022-10-22T13:58:14;100374.56;;;15.01;75.25
43071;BME280;36278;47.952;21.714;2022-10-22T14:00:44;100367.81;;;15.07;75.38
43071;BME280;36278;47.952;21.714;2022-10-22T14:03:12;100354.59;;;15.05;75.10
43071;BME280;36278;47.952;21.714;2022-10-22T14:05:40;100357.84;;;15.09;75.35
43071;BME280;36278;47.952;21.714;2022-10-22T14:08:12;100363.59;;;15.04;75.56
43071;BME280;36278;47.952;21.714;2022-10-22T14:10:38;100356.75;;;14.92;76.18
43071;BME280;36278;47.952;21.714;2022-10-22T14:13:14;100353.66;;;14.87;77.18
43071;BME280;36278;47.952;21.714;2022-10-22T14:15:42;100370.78;;;14.94;76.34
43071;BME280;36278;47.952;21.714;2022-10-22T14:18:11;100376.28;;;14.93;76.43
43071;BME280;36278;47.952;21.714;2022-10-22T14:20:40;100368.97;;;14.85;76.87
43071;BME280;36278;47.952;21.714;2022-10-22T14:23:19;100359.03;;;14.77;77.12
43071;BME280;36278;47.952;21.714;2022-10-22T14:25:45;100361.38;;;14.80;77.38
43071;BME280;36278;47.952;21.714;2022-10-22T14:28:12;100354.13;;;14.82;77.67
43071;BME280;36278;47.952;21.714;2022-10-22T14:30:38;100361.25;;;14.82;77.90
43071;BME280;36278;47.952;21.714;2022-10-22T14:33:24;100356.91;;;14.81;77.29
43071;BME280;36278;47.952;21.714;2022-10-22T14:35:50;100343.16;;;14.76;77.37
43071;BME280;36278;47.952;21.714;2022-10-22T14:38:16;100348.19;;;14.79;77.15
43071;BME280;36278;47.952;21.714;2022-10-22T14:40:43;100349.03;;;14.79;76.90
43071;BME280;36278;47.952;21.714;2022-10-22T14:43:29;100352.00;;;14.76;77.62
43071;BME280;36278;47.952;21.714;2022-10-22T14:45:56;100341.75;;;14.72;78.48
43071;BME280;36278;47.952;21.714;2022-10-22T14:48:22;100341.75;;;14.72;78.03
43071;BME280;36278;47.952;21.714;2022-10-22T14:50:48;100343.44;;;14.73;78.87